Time;durP1;ratioP1;P1;durP2;ratioP2;P2;SDS_P1;SDS_P2;PMS_P1;PMS_P2;Temp;Humidity;BMP_temperature;BMP_pressure;BME280_temperature;BME280_humidity;BME280_pressure;Samples;Min_cycle;Max_cycle;Signal;HPM_P1;HPM_P2
2023/08/11 00:00:23;;;;;;;;;;;;;;;22.16;31.12;98016.31;4901326;29;1041;-75
2023/08/11 00:02:51;;;;;;;;;;;;;;;22.30;30.80;98015.91;4885234;29;1248;-75
2023/08/11 00:05:20;;;;;;;;;;;;;;;22.34;30.85;98010.94;4885394;29;986;-75
2023/08/11 00:07:47;;;;;;;;;;;;;;;22.26;31.04;98015.19;4885713;29;1023;-74
2023/08/11 00:10:13;;;;;;;;;;;;;;;22.50;30.81;98009.25;4870191;29;878;-74
2023/08/11 00:12:39;;;;;;;;;;;;;;;22.19;31.40;98006.91;4900549;29;1895;-75
2023/08/11 00:15:06;;;;;;;;;;;;;;;22.38;30.82;98005.13;4900747;29;990;-74
2023/08/11 00:17:32;;;;;;;;;;;;;;;22.30;31.14;98013.06;4900366;29;952;-75
2023/08/11 00:19:57;;;;;;;;;;;;;;;22.31;31.40;98011.81;4881802;29;1138;-75
2023/08/11 00:22:23;;;;;;;;;;;;;;;22.33;31.60;98009.34;4866584;29;1010;-74
2023/08/11 00:24:49;;;;;;;;;;;;;;;22.29;31.55;98010.69;4896039;29;966;-73
2023/08/11 00:27:14;;;;;;;;;;;;;;;22.39;31.47;98005.94;4888366;29;953;-74
2023/08/11 00:29:40;;;;;;;;;;;;;;;22.32;31.60;98009.78;4904036;29;978;-74
2023/08/11 00:32:05;;;;;;;;;;;;;;;22.41;31.33;98020.47;4888020;29;1099;-75
2023/08/11 00:34:31;;;;;;;;;;;;;;;22.19;31.94;98008.97;4903574;29;1919;-75
2023/08/11 00:36:56;;;;;;;;;;;;;;;22.28;31.72;98011.94;4887859;29;1157;-76
2023/08/11 00:39:22;;;;;;;;;;;;;;;22.18;31.79;98005.34;4903147;29;990;-74
2023/08/11 00:41:48;;;;;;;;;;;;;;;22.23;31.52;97999.13;4919230;29;1064;-75
2023/08/11 00:44:13;;;;;;;;;;;;;;;22.10;32.10;97998.25;4903341;29;936;-75
2023/08/11 00:46:42;;;;;;;;;;;;;;;22.18;31.96;97996.81;4887976;29;1439;-74
2023/08/11 00:49:09;;;;;;;;;;;;;;;22.20;31.85;98002.84;4919111;29;1155;-75
2023/08/11 00:51:34;;;;;;;;;;;;;;;22.23;31.72;98009.66;4918294;29;1049;-75
2023/08/11 00:54:01;;;;;;;;;;;;;;;22.36;31.45;98008.44;4940199;29;1919;-75
2023/08/11 00:56:26;;;;;;;;;;;;;;;22.38;31.27;98010.00;4884136;29;1194;-75
2023/08/11 00:58:53;;;;;;;;;;;;;;;22.62;31.07;98022.66;4868898;29;999;-75
2023/08/11 01:01:18;;;;;;;;;;;;;;;22.36;31.11;98019.75;4884477;29;1048;-75
2023/08/11 01:03:47;;;;;;;;;;;;;;;22.30;31.42;98027.25;4853696;29;1193;-74
2023/08/11 01:06:32;;;;;;;;;;;;;;;22.33;31.28;98040.53;4884868;29;1030;-75
2023/08/11 01:09:03;;;;;;;;;;;;;;;22.17;31.72;98034.88;4884249;29;1277;-76
2023/08/11 01:11:40;;;;;;;;;;;;;;;22.09;31.83;98042.00;4884000;29;1286;-75
2023/08/11 01:14:11;;;;;;;;;;;;;;;22.16;31.72;98043.84;4868809;29;1919;-74
2023/08/11 01:16:37;;;;;;;;;;;;;;;22.42;31.24;98036.22;4868356;29;993;-75
2023/08/11 01:19:04;;;;;;;;;;;;;;;22.20;31.53;98045.34;4846790;29;1178;-75
2023/08/11 01:21:29;;;;;;;;;;;;;;;22.35;31.22;98040.84;4862245;29;1084;-75
2023/08/11 01:23:56;;;;;;;;;;;;;;;22.09;31.69;98044.81;4846936;29;1175;-75
2023/08/11 01:26:21;;;;;;;;;;;;;;;22.22;31.20;98042.84;4847657;29;1221;-75
2023/08/11 01:28:47;;;;;;;;;;;;;;;22.23;31.24;98033.13;4865184;29;1698;-74
2023/08/11 01:31:12;;;;;;;;;;;;;;;22.15;31.28;98037.38;4865375;29;974;-74
2023/08/11 01:33:38;;;;;;;;;;;;;;;22.30;31.08;98041.41;4880277;29;1911;-75
2023/08/11 01:36:04;;;;;;;;;;;;;;;22.19;31.44;98046.59;4865309;29;1052;-75
2023/08/11 01:38:30;;;;;;;;;;;;;;;22.08;31.45;98043.25;4865215;29;937;-75
2023/08/11 01:40:56;;;;;;;;;;;;;;;22.18;31.27;98036.50;4865278;29;1247;-75
2023/08/11 01:43:22;;;;;;;;;;;;;;;22.02;31.38;98037.31;4843405;29;1167;-74
2023/08/11 01:45:48;;;;;;;;;;;;;;;22.15;31.33;98037.38;4842371;29;1253;-75
2023/08/11 01:48:14;;;;;;;;;;;;;;;22.26;31.04;98037.88;4864771;29;1143;-75
2023/08/11 01:50:39;;;;;;;;;;;;;;;22.11;31.46;98039.53;4908609;29;1241;-74
2023/08/11 01:53:05;;;;;;;;;;;;;;;22.15;31.36;98042.25;4917709;29;1903;-75
2023/08/11 01:55:31;;;;;;;;;;;;;;;22.42;30.91;98036.22;4882623;29;891;-74
2023/08/11 01:57:58;;;;;;;;;;;;;;;22.40;30.72;98035.88;4880074;29;1113;-75
2023/08/11 02:00:23;;;;;;;;;;;;;;;22.21;31.14;98029.94;4864608;29;1159;-75
2023/08/11 02:02:49;;;;;;;;;;;;;;;22.18;31.45;98035.72;4879939;29;943;-75
2023/08/11 02:05:15;;;;;;;;;;;;;;;22.29;31.13;98037.00;4864631;29;914;-75
2023/08/11 02:07:42;;;;;;;;;;;;;;;22.34;30.94;98027.94;4864883;29;1242;-75
2023/08/11 02:10:11;;;;;;;;;;;;;;;22.39;31.04;98039.97;4864466;29;993;-75
2023/08/11 02:12:38;;;;;;;;;;;;;;;22.49;30.73;98038.88;4849601;29;1966;-75
2023/08/11 02:15:05;;;;;;;;;;;;;;;22.46;30.94;98040.53;4849228;29;1145;-75
2023/08/11 02:17:31;;;;;;;;;;;;;;;22.34;30.71;98039.28;4864595;29;1135;-74
2023/08/11 02:19:58;;;;;;;;;;;;;;;22.37;31.17;98037.56;4867548;29;1029;-75
2023/08/11 02:22:23;;;;;;;;;;;;;;;22.49;30.86;98045.31;4916873;29;1110;-75
2023/08/11 02:24:49;;;;;;;;;;;;;;;22.31;31.01;98040.16;4920729;29;971;-74
2023/08/11 02:27:14;;;;;;;;;;;;;;;22.16;31.25;98044.66;4921101;29;1109;-75
2023/08/11 02:29:40;;;;;;;;;;;;;;;22.48;30.67;98048.59;4902001;29;947;-74
2023/08/11 02:32:07;;;;;;;;;;;;;;;22.43;30.75;98040.63;4917181;29;1188;-75
2023/08/11 02:34:33;;;;;;;;;;;;;;;22.32;31.05;98038.91;4923865;29;1997;-75
2023/08/11 02:36:59;;;;;;;;;;;;;;;22.22;31.26;98042.84;4956571;29;938;-75
2023/08/11 02:39:24;;;;;;;;;;;;;;;22.31;31.26;98033.69;4957487;29;1124;-75
2023/08/11 02:41:50;;;;;;;;;;;;;;;22.35;31.07;98034.41;4924873;29;1281;-75
2023/08/11 02:44:15;;;;;;;;;;;;;;;22.31;31.09;98037.31;4956875;29;895;-75
2023/08/11 02:46:41;;;;;;;;;;;;;;;22.29;30.93;98036.19;4943091;29;1269;-75
2023/08/11 02:49:07;;;;;;;;;;;;;;;22.31;31.19;98028.03;4921497;29;924;-74
2023/08/11 02:51:34;;;;;;;;;;;;;;;22.31;30.93;98034.50;4906182;29;1146;-75
2023/08/11 02:54:00;;;;;;;;;;;;;;;22.27;31.10;98030.97;4905896;29;1977;-75
2023/08/11 02:56:26;;;;;;;;;;;;;;;22.14;31.39;98038.63;4921756;29;961;-75
2023/08/11 02:58:52;;;;;;;;;;;;;;;22.49;30.53;98036.03;4905803;29;1106;-75
2023/08/11 03:01:17;;;;;;;;;;;;;;;22.57;30.64;98034.56;4921338;29;1102;-75
2023/08/11 03:03:43;;;;;;;;;;;;;;;22.52;30.48;98043.63;4906109;29;1203;-75
2023/08/11 03:06:10;;;;;;;;;;;;;;;22.47;30.81;98047.00;4905501;29;1297;-75
2023/08/11 03:08:37;;;;;;;;;;;;;;;22.30;30.93;98049.13;4907813;29;970;-76
2023/08/11 03:11:03;;;;;;;;;;;;;;;22.50;30.85;98046.91;4924958;29;864;-75
2023/08/11 03:13:33;;;;;;;;;;;;;;;22.28;31.15;98052.41;4901200;29;1903;-75
2023/08/11 03:15:59;;;;;;;;;;;;;;;22.41;30.83;98048.81;4885928;29;1274;-75
2023/08/11 03:18:24;;;;;;;;;;;;;;;22.35;30.91;98051.41;4870321;29;1158;-75
2023/08/11 03:20:52;;;;;;;;;;;;;;;22.30;30.76;98055.59;4855346;29;1221;-76
2023/08/11 03:23:19;;;;;;;;;;;;;;;22.42;30.70;98050.41;4855286;29;1151;-75
2023/08/11 03:25:44;;;;;;;;;;;;;;;22.51;30.53;98056.22;4885982;29;1149;-76
2023/08/11 03:28:11;;;;;;;;;;;;;;;22.28;30.90;98060.91;4870257;29;1260;-76
2023/08/11 03:30:40;;;;;;;;;;;;;;;22.15;31.15;98059.28;4886198;29;1214;-76
2023/08/11 03:33:05;;;;;;;;;;;;;;;22.31;31.01;98062.84;4885642;29;1906;-76
2023/08/11 03:35:51;;;;;;;;;;;;;;;22.27;31.08;98056.47;4888210;29;1015;-76
2023/08/11 03:38:17;;;;;;;;;;;;;;;22.27;31.08;98067.81;4885332;29;1113;-75
2023/08/11 03:40:42;;;;;;;;;;;;;;;22.44;30.53;98060.06;4901056;29;1146;-77
2023/08/11 03:43:08;;;;;;;;;;;;;;;22.42;30.50;98056.84;4885385;29;1553;-76
2023/08/11 03:45:34;;;;;;;;;;;;;;;22.22;31.03;98065.53;4906932;29;1197;-76
2023/08/11 03:48:00;;;;;;;;;;;;;;;22.16;30.98;98064.47;4908544;29;1284;-77
2023/08/11 03:50:26;;;;;;;;;;;;;;;22.11;30.89;98062.19;4924513;29;1580;-76
2023/08/11 03:52:51;;;;;;;;;;;;;;;22.20;31.06;98062.34;4924429;29;1907;-77
2023/08/11 03:55:17;;;;;;;;;;;;;;;22.19;30.91;98063.59;4908446;29;1819;-77
2023/08/11 03:57:43;;;;;;;;;;;;;;;22.31;30.82;98065.66;4908655;29;1145;-76
2023/08/11 04:00:15;;;;;;;;;;;;;;;22.05;31.37;98064.75;4924180;29;1303;-75
2023/08/11 04:02:43;;;;;;;;;;;;;;;22.14;31.19;98069.81;4924446;29;958;-76
2023/08/11 04:05:11;;;;;;;;;;;;;;;21.93;31.35;98071.16;4908648;29;1301;-76
2023/08/11 04:07:37;;;;;;;;;;;;;;;22.02;31.52;98070.50;4908278;29;1204;-75
2023/08/11 04:10:04;;;;;;;;;;;;;;;22.33;31.00;98083.03;4908589;29;907;-76
2023/08/11 04:12:30;;;;;;;;;;;;;;;22.55;30.56;98088.88;4924101;29;988;-76
2023/08/11 04:14:56;;;;;;;;;;;;;;;22.43;30.85;98080.34;4908089;29;1973;-77
2023/08/11 04:17:21;;;;;;;;;;;;;;;22.29;30.82;98085.19;4924453;29;932;-75
2023/08/11 04:19:48;;;;;;;;;;;;;;;22.49;30.85;98090.69;4923520;29;978;-76
2023/08/11 04:22:13;;;;;;;;;;;;;;;22.25;31.25;98075.97;4908297;29;854;-76
2023/08/11 04:24:39;;;;;;;;;;;;;;;22.14;31.36;98086.81;4923591;29;1126;-76
2023/08/11 04:27:05;;;;;;;;;;;;;;;22.19;31.42;98079.81;4891456;29;1181;-77
2023/08/11 04:29:32;;;;;;;;;;;;;;;22.32;31.07;98087.09;4863073;29;1241;-77
2023/08/11 04:32:04;;;;;;;;;;;;;;;22.21;31.45;98091.47;4847643;29;1261;-76
2023/08/11 04:34:31;;;;;;;;;;;;;;;22.20;31.31;98087.06;4826788;29;1907;-77
2023/08/11 04:36:57;;;;;;;;;;;;;;;22.21;31.38;98083.78;4811364;29;1184;-77
2023/08/11 04:39:23;;;;;;;;;;;;;;;22.30;31.35;98083.94;4811244;29;1338;-76
2023/08/11 04:41:49;;;;;;;;;;;;;;;22.32;31.00;98086.31;4811291;29;1146;-76
2023/08/11 04:44:14;;;;;;;;;;;;;;;22.36;30.84;98087.00;4826462;29;1250;-76
2023/08/11 04:46:40;;;;;;;;;;;;;;;22.53;30.67;98090.56;4826240;29;1312;-77
2023/08/11 04:49:05;;;;;;;;;;;;;;;22.21;31.24;98080.94;4777903;29;1097;-77
2023/08/11 04:51:32;;;;;;;;;;;;;;;22.22;31.52;98088.19;4808176;29;1224;-76
2023/08/11 04:54:00;;;;;;;;;;;;;;;22.06;31.60;98091.84;4808056;29;1911;-77
2023/08/11 04:56:27;;;;;;;;;;;;;;;22.23;31.51;98089.81;4778091;29;1121;-77
2023/08/11 04:58:54;;;;;;;;;;;;;;;22.22;31.42;98091.03;4793069;29;991;-76
2023/08/11 05:01:20;;;;;;;;;;;;;;;22.41;31.28;98089.28;4792942;29;1038;-76
2023/08/11 05:03:46;;;;;;;;;;;;;;;22.26;31.44;98096.59;4807888;29;1002;-77
2023/08/11 05:06:12;;;;;;;;;;;;;;;22.02;31.73;98101.66;4792858;29;909;-77
2023/08/11 05:08:37;;;;;;;;;;;;;;;22.05;31.66;98097.97;4810432;29;1323;-76
2023/08/11 05:11:03;;;;;;;;;;;;;;;22.42;31.10;98107.09;4810592;29;990;-77
2023/08/11 05:13:29;;;;;;;;;;;;;;;22.35;31.22;98103.22;4810683;29;1911;-76
2023/08/11 05:15:54;;;;;;;;;;;;;;;22.47;30.90;98109.38;4839687;29;1035;-77
2023/08/11 05:18:20;;;;;;;;;;;;;;;22.41;31.10;98105.50;4813839;29;979;-77
2023/08/11 05:20:46;;;;;;;;;;;;;;;22.45;31.14;98111.88;4841916;29;1053;-76
2023/08/11 05:23:12;;;;;;;;;;;;;;;22.33;31.43;98111.41;4850224;29;923;-77
2023/08/11 05:25:38;;;;;;;;;;;;;;;22.23;31.66;98109.66;4880864;29;951;-77
2023/08/11 05:28:03;;;;;;;;;;;;;;;22.14;31.96;98106.66;4849791;29;998;-77
2023/08/11 05:30:29;;;;;;;;;;;;;;;22.19;31.83;98108.94;4880247;29;947;-77
2023/08/11 05:32:54;;;;;;;;;;;;;;;22.44;31.36;98104.63;4864746;29;1911;-76
2023/08/11 05:35:20;;;;;;;;;;;;;;;22.28;31.30;98109.09;4849904;29;1199;-76
2023/08/11 05:37:47;;;;;;;;;;;;;;;22.27;31.55;98107.50;4846547;29;1238;-77
2023/08/11 05:40:12;;;;;;;;;;;;;;;22.45;31.29;98106.22;4862277;29;1125;-76
2023/08/11 05:42:38;;;;;;;;;;;;;;;22.36;31.39;98116.16;4861996;29;1161;-76
2023/08/11 05:45:04;;;;;;;;;;;;;;;22.46;31.23;98117.09;4894696;29;1145;-76
2023/08/11 05:47:29;;;;;;;;;;;;;;;22.26;31.59;98122.91;4883742;29;1149;-77
2023/08/11 05:49:55;;;;;;;;;;;;;;;22.26;31.73;98122.13;4899424;29;1015;-76
2023/08/11 05:52:20;;;;;;;;;;;;;;;22.21;31.74;98120.63;4898904;29;977;-77
2023/08/11 05:54:46;;;;;;;;;;;;;;;22.30;31.74;98117.94;4883529;29;1915;-77
2023/08/11 05:57:12;;;;;;;;;;;;;;;22.32;31.61;98121.13;4883814;29;1201;-77
2023/08/11 05:59:37;;;;;;;;;;;;;;;22.39;31.67;98119.34;4883520;29;1515;-76
2023/08/11 06:02:03;;;;;;;;;;;;;;;22.58;30.97;98115.53;4898780;29;1032;-77
2023/08/11 06:04:28;;;;;;;;;;;;;;;22.39;31.41;98122.19;4898850;29;1095;-76
2023/08/11 06:06:54;;;;;;;;;;;;;;;22.58;31.08;98115.53;4868437;29;1154;-76
2023/08/11 06:09:19;;;;;;;;;;;;;;;22.60;30.97;98124.41;4883399;29;1002;-77
2023/08/11 06:11:45;;;;;;;;;;;;;;;22.40;31.25;98116.06;4898831;29;1058;-77
2023/08/11 06:14:10;;;;;;;;;;;;;;;22.42;31.44;98129.78;4883097;29;1918;-77
2023/08/11 06:16:36;;;;;;;;;;;;;;;22.55;31.00;98127.81;4902041;29;1136;-77
2023/08/11 06:19:01;;;;;;;;;;;;;;;22.58;31.02;98126.88;4901935;29;1157;-76
2023/08/11 06:21:27;;;;;;;;;;;;;;;22.40;31.26;98126.59;4886290;29;1266;-76
2023/08/11 06:23:53;;;;;;;;;;;;;;;22.58;31.06;98126.88;4902068;29;1019;-77
2023/08/11 06:26:19;;;;;;;;;;;;;;;22.41;31.33;98128.19;4886357;29;1081;-77
2023/08/11 06:28:45;;;;;;;;;;;;;;;22.49;31.13;98123.94;4901878;29;998;-77
2023/08/11 06:31:10;;;;;;;;;;;;;;;22.50;31.29;98131.97;4886546;29;1201;-76
2023/08/11 06:33:36;;;;;;;;;;;;;;;22.53;31.32;98133.91;4885797;29;1982;-77
2023/08/11 06:36:01;;;;;;;;;;;;;;;22.44;31.46;98127.31;4901934;29;914;-76
2023/08/11 06:38:27;;;;;;;;;;;;;;;22.29;31.91;98116.34;4901984;29;1134;-76
2023/08/11 06:40:52;;;;;;;;;;;;;;;22.34;31.87;98127.16;4901870;29;1036;-76
2023/08/11 06:43:18;;;;;;;;;;;;;;;22.58;31.38;98126.88;4920059;29;1093;-77
2023/08/11 06:45:45;;;;;;;;;;;;;;;22.38;31.52;98123.41;4920490;29;1072;-76
2023/08/11 06:48:11;;;;;;;;;;;;;;;22.41;31.59;98128.19;4925622;29;974;-78
2023/08/11 06:50:37;;;;;;;;;;;;;;;22.38;31.31;98129.06;4920991;29;918;-77
2023/08/11 06:53:03;;;;;;;;;;;;;;;22.45;31.35;98126.06;4905198;29;1899;-77
2023/08/11 06:55:28;;;;;;;;;;;;;;;22.59;31.22;98123.63;4905564;29;996;-76
2023/08/11 06:57:53;;;;;;;;;;;;;;;22.29;31.68;98121.25;4905482;29;980;-76
2023/08/11 07:00:19;;;;;;;;;;;;;;;22.61;31.23;98131.66;4905447;29;957;-77
2023/08/11 07:02:44;;;;;;;;;;;;;;;22.42;31.52;98124.09;4905389;29;926;-77
2023/08/11 07:05:11;;;;;;;;;;;;;;;22.56;31.13;98126.56;4905215;29;1330;-76
2023/08/11 07:07:36;;;;;;;;;;;;;;;22.43;31.44;98125.69;4867783;29;958;-76
2023/08/11 07:10:03;;;;;;;;;;;;;;;22.47;31.26;98135.69;4883403;29;989;-77
2023/08/11 07:12:28;;;;;;;;;;;;;;;22.51;31.12;98133.56;4883388;29;1044;-77
2023/08/11 07:14:54;;;;;;;;;;;;;;;22.39;31.21;98136.38;4867663;29;1923;-77
2023/08/11 07:17:20;;;;;;;;;;;;;;;22.43;31.28;98139.88;4867945;29;1213;-76
2023/08/11 07:19:45;;;;;;;;;;;;;;;22.55;30.94;98144.81;4868090;29;924;-77
2023/08/11 07:22:11;;;;;;;;;;;;;;;22.54;31.10;98146.84;4897287;29;1067;-77
2023/08/11 07:24:36;;;;;;;;;;;;;;;22.34;31.58;98141.31;4901605;29;981;-77
2023/08/11 07:27:02;;;;;;;;;;;;;;;22.33;31.46;98136.91;4886342;29;978;-76
2023/08/11 07:29:28;;;;;;;;;;;;;;;22.15;31.94;98136.56;4886331;29;900;-77
2023/08/11 07:31:56;;;;;;;;;;;;;;;22.29;31.80;98150.38;4885985;29;1061;-77
2023/08/11 07:34:21;;;;;;;;;;;;;;;22.58;31.12;98149.56;4885859;29;1918;-76
2023/08/11 07:36:47;;;;;;;;;;;;;;;22.46;31.56;98156.00;4901512;29;1043;-77
2023/08/11 07:39:12;;;;;;;;;;;;;;;22.52;31.44;98157.03;4915208;29;1110;-77
2023/08/11 07:41:38;;;;;;;;;;;;;;;22.51;31.25;98155.44;4925026;29;1150;-76
2023/08/11 07:44:04;;;;;;;;;;;;;;;22.61;31.18;98157.19;4924430;29;892;-77
2023/08/11 07:46:29;;;;;;;;;;;;;;;22.63;31.21;98157.53;4924308;29;1072;-77
2023/08/11 07:48:55;;;;;;;;;;;;;;;22.70;31.18;98163.03;4924201;29;1006;-77
2023/08/11 07:51:20;;;;;;;;;;;;;;;22.40;31.56;98160.63;4924749;29;890;-76
2023/08/11 07:53:46;;;;;;;;;;;;;;;22.53;31.20;98156.59;4923519;29;1903;-77
2023/08/11 07:56:12;;;;;;;;;;;;;;;22.46;31.49;98161.66;4924146;29;1217;-76
2023/08/11 07:58:37;;;;;;;;;;;;;;;22.42;31.22;98155.28;4940951;29;918;-76
2023/08/11 08:01:03;;;;;;;;;;;;;;;22.34;31.54;98160.38;4924413;29;962;-76
2023/08/11 08:03:29;;;;;;;;;;;;;;;22.54;31.12;98154.56;4907481;29;1101;-77
2023/08/11 08:05:54;;;;;;;;;;;;;;;22.60;30.99;98161.28;4941336;29;996;-77
2023/08/11 08:08:20;;;;;;;;;;;;;;;22.66;30.82;98162.31;4924165;29;981;-77
2023/08/11 08:10:45;;;;;;;;;;;;;;;22.51;31.27;98158.28;4882185;29;1000;-76
2023/08/11 08:13:11;;;;;;;;;;;;;;;22.33;31.33;98156.75;4882330;29;1899;-77
2023/08/11 08:15:37;;;;;;;;;;;;;;;22.49;31.13;98163.63;4866854;29;1006;-76
2023/08/11 08:18:03;;;;;;;;;;;;;;;22.55;30.99;98156.94;4882311;29;958;-76
2023/08/11 08:20:28;;;;;;;;;;;;;;;22.43;31.31;98162.56;4844736;29;965;-77
2023/08/11 08:22:54;;;;;;;;;;;;;;;22.44;31.21;98158.50;4844821;29;1025;-76
2023/08/11 08:25:19;;;;;;;;;;;;;;;22.18;31.67;98172.53;4826319;29;1156;-77
2023/08/11 08:27:45;;;;;;;;;;;;;;;22.35;31.13;98159.94;4826944;29;1082;-77
2023/08/11 08:30:11;;;;;;;;;;;;;;;22.25;31.24;98155.34;4826709;29;982;-76
2023/08/11 08:32:37;;;;;;;;;;;;;;;22.34;31.12;98164.00;4796494;29;1218;-77
2023/08/11 08:35:03;;;;;;;;;;;;;;;22.71;30.81;98164.59;4807988;29;2000;-77
2023/08/11 08:37:29;;;;;;;;;;;;;;;22.58;31.02;98161.72;4792862;29;1129;-77
2023/08/11 08:39:54;;;;;;;;;;;;;;;22.45;31.09;98162.91;4808080;29;967;-76
2023/08/11 08:42:21;;;;;;;;;;;;;;;22.60;30.76;98159.25;4833316;29;1192;-77
2023/08/11 08:44:47;;;;;;;;;;;;;;;22.31;31.28;98164.88;4847770;29;980;-77
2023/08/11 08:47:13;;;;;;;;;;;;;;;22.56;30.65;98180.44;4847331;29;1122;-77
2023/08/11 08:49:39;;;;;;;;;;;;;;;22.42;30.96;98163.81;4862751;29;1018;-76
2023/08/11 08:52:07;;;;;;;;;;;;;;;22.44;30.97;98169.84;4847611;29;1014;-77
2023/08/11 08:54:33;;;;;;;;;;;;;;;22.59;30.90;98171.03;4862464;29;1915;-77
2023/08/11 08:56:59;;;;;;;;;;;;;;;22.33;31.28;98185.09;4862728;29;1080;-76
2023/08/11 08:59:24;;;;;;;;;;;;;;;22.55;30.79;98173.16;4847484;29;991;-76
2023/08/11 09:01:50;;;;;;;;;;;;;;;22.33;31.11;98176.59;4851754;29;972;-76
2023/08/11 09:04:15;;;;;;;;;;;;;;;21.92;31.11;98108.44;4888577;29;1054;-76
2023/08/11 09:06:41;;;;;;;;;;;;;;;22.35;31.21;98171.25;4902262;29;1016;-77
2023/08/11 09:09:07;;;;;;;;;;;;;;;22.63;30.89;98180.22;4918841;29;1067;-76
2023/08/11 09:11:32;;;;;;;;;;;;;;;22.60;30.79;98186.81;4903185;29;995;-77
2023/08/11 09:14:02;;;;;;;;;;;;;;;22.46;31.15;98170.97;4918877;29;1989;-77
2023/08/11 09:16:27;;;;;;;;;;;;;;;22.38;30.98;98191.44;4918854;29;977;-77
2023/08/11 09:18:53;;;;;;;;;;;;;;;22.72;30.42;98183.22;4918682;29;1022;-77
2023/08/11 09:21:20;;;;;;;;;;;;;;;22.66;30.78;98192.72;4918706;29;910;-76
2023/08/11 09:23:46;;;;;;;;;;;;;;;22.71;30.50;98192.97;4918281;29;1715;-77
2023/08/11 09:26:11;;;;;;;;;;;;;;;22.82;30.47;98179.28;4949718;29;969;-76
2023/08/11 09:28:38;;;;;;;;;;;;;;;22.62;30.51;98178.63;4941447;29;979;-77
2023/08/11 09:31:03;;;;;;;;;;;;;;;22.53;30.86;98184.16;4959004;29;989;-77
2023/08/11 09:33:30;;;;;;;;;;;;;;;22.37;30.98;98179.31;4921092;29;1918;-77
2023/08/11 09:35:56;;;;;;;;;;;;;;;22.57;31.03;98182.03;4937118;29;1021;-77
2023/08/11 09:38:21;;;;;;;;;;;;;;;22.53;30.70;98182.09;4921547;29;1132;-77
2023/08/11 09:40:48;;;;;;;;;;;;;;;22.34;31.15;98174.56;4921435;29;1533;-77
2023/08/11 09:43:14;;;;;;;;;;;;;;;22.69;30.68;98178.44;4937039;29;1235;-77
2023/08/11 09:45:39;;;;;;;;;;;;;;;22.55;30.96;98178.84;4937207;29;1107;-77
2023/08/11 09:48:05;;;;;;;;;;;;;;;22.65;30.85;98183.44;4937060;29;991;-78
2023/08/11 09:50:31;;;;;;;;;;;;;;;22.72;30.87;98188.09;4937293;29;1020;-76
2023/08/11 09:52:56;;;;;;;;;;;;;;;22.49;31.19;98187.09;4921075;29;1906;-78
2023/08/11 09:55:23;;;;;;;;;;;;;;;22.61;30.77;98185.56;4920920;29;965;-77
2023/08/11 09:57:48;;;;;;;;;;;;;;;22.67;30.59;98191.47;4905169;29;935;-78
2023/08/11 10:00:14;;;;;;;;;;;;;;;22.70;30.60;98187.75;4936669;29;946;-77
2023/08/11 10:02:41;;;;;;;;;;;;;;;22.63;30.81;98185.88;4905063;29;1017;-77
2023/08/11 10:05:07;;;;;;;;;;;;;;;22.30;31.16;98180.31;4936349;29;974;-77
2023/08/11 10:07:37;;;;;;;;;;;;;;;22.40;31.12;98183.31;4925494;29;1041;-77
2023/08/11 10:10:06;;;;;;;;;;;;;;;22.48;30.70;98179.03;4941572;29;984;-77
2023/08/11 10:12:32;;;;;;;;;;;;;;;22.62;30.55;98184.31;4940756;29;1053;-76
2023/08/11 10:14:58;;;;;;;;;;;;;;;22.63;30.80;98185.88;4940631;29;1914;-76
2023/08/11 10:17:24;;;;;;;;;;;;;;;22.73;30.52;98184.78;4940152;29;1976;-77
2023/08/11 10:19:50;;;;;;;;;;;;;;;22.76;30.61;98183.13;4956965;29;927;-77
2023/08/11 10:22:16;;;;;;;;;;;;;;;22.65;30.65;98189.09;4956902;29;1012;-76
2023/08/11 10:24:43;;;;;;;;;;;;;;;22.41;31.25;98191.34;4957945;29;885;-77
2023/08/11 10:27:09;;;;;;;;;;;;;;;22.60;30.94;98181.13;4957519;29;993;-77
2023/08/11 10:29:34;;;;;;;;;;;;;;;22.64;30.56;98198.84;4956966;29;957;-77
2023/08/11 10:32:00;;;;;;;;;;;;;;;22.82;30.40;98196.28;4956920;29;961;-77
2023/08/11 10:34:26;;;;;;;;;;;;;;;22.76;30.23;98189.59;4956543;29;1902;-77
2023/08/11 10:36:55;;;;;;;;;;;;;;;22.82;30.36;98198.34;4958301;29;878;-77
2023/08/11 10:39:21;;;;;;;;;;;;;;;22.48;30.52;98150.66;4956817;29;917;-77
2023/08/11 10:41:46;;;;;;;;;;;;;;;22.52;30.75;98199.56;4957602;29;973;-76
2023/08/11 10:44:12;;;;;;;;;;;;;;;22.46;30.89;98192.84;4958119;29;938;-76
2023/08/11 10:46:38;;;;;;;;;;;;;;;22.32;31.29;98194.03;4978111;28;1212;-76
2023/08/11 10:49:08;;;;;;;;;;;;;;;22.31;31.06;98193.22;4955540;29;979;-77
2023/08/11 10:51:37;;;;;;;;;;;;;;;22.45;31.09;98191.28;4955742;29;965;-76
2023/08/11 10:54:11;;;;;;;;;;;;;;;22.34;31.15;98198.03;4939791;29;2001;-76
2023/08/11 10:56:38;;;;;;;;;;;;;;;22.41;31.00;98184.91;4955783;29;997;-77
2023/08/11 10:59:13;;;;;;;;;;;;;;;22.39;31.17;98193.84;4955773;29;973;-77
2023/08/11 11:01:39;;;;;;;;;;;;;;;22.62;30.80;98192.81;4936409;29;1172;-76
2023/08/11 11:04:06;;;;;;;;;;;;;;;22.61;30.40;98191.22;4936569;29;972;-77
2023/08/11 11:06:31;;;;;;;;;;;;;;;22.70;30.45;98180.03;4936553;29;987;-77
2023/08/11 11:08:57;;;;;;;;;;;;;;;22.69;30.37;98181.28;4936609;29;874;-77
2023/08/11 11:11:22;;;;;;;;;;;;;;;22.69;30.20;98183.31;4936545;29;1002;-76
2023/08/11 11:13:48;;;;;;;;;;;;;;;22.53;30.41;98187.78;4936004;29;1974;-77
2023/08/11 11:16:13;;;;;;;;;;;;;;;22.39;30.76;98193.06;4936555;29;1142;-77
2023/08/11 11:18:42;;;;;;;;;;;;;;;22.51;30.62;98195.16;4936463;29;1285;-77
2023/08/11 11:21:08;;;;;;;;;;;;;;;22.43;30.85;98193.75;4936376;29;1147;-77
2023/08/11 11:23:33;;;;;;;;;;;;;;;22.60;30.72;98192.47;4936488;29;886;-77
2023/08/11 11:26:00;;;;;;;;;;;;;;;22.56;30.77;98188.94;4936173;28;1266;-76
2023/08/11 11:28:26;;;;;;;;;;;;;;;22.59;30.55;98196.56;4920508;29;1553;-76
2023/08/11 11:30:51;;;;;;;;;;;;;;;22.52;30.54;98188.22;4923803;29;1186;-76
2023/08/11 11:33:17;;;;;;;;;;;;;;;22.63;30.34;98185.88;4939956;29;1918;-76
2023/08/11 11:35:42;;;;;;;;;;;;;;;22.35;30.86;98188.28;4956039;29;917;-76
2023/08/11 11:38:08;;;;;;;;;;;;;;;22.41;30.91;98184.91;4926222;29;1232;-76
2023/08/11 11:40:33;;;;;;;;;;;;;;;22.55;30.40;98190.19;4992625;28;969;-77
2023/08/11 11:42:59;;;;;;;;;;;;;;;22.48;30.80;98196.03;4959769;29;1077;-77
2023/08/11 11:45:26;;;;;;;;;;;;;;;22.50;30.55;98188.69;4965400;28;1056;-76
2023/08/11 11:47:53;;;;;;;;;;;;;;;22.51;30.51;98193.09;4962815;28;1048;-76
2023/08/11 11:50:18;;;;;;;;;;;;;;;22.48;30.60;98187.53;4963436;28;879;-76
2023/08/11 11:52:47;;;;;;;;;;;;;;;22.16;31.08;98191.22;4963144;28;1143;-77
2023/08/11 11:55:12;;;;;;;;;;;;;;;22.60;30.33;98190.44;4963250;28;1977;-75
2023/08/11 11:57:38;;;;;;;;;;;;;;;22.63;30.27;98185.88;4980197;28;908;-77
2023/08/11 12:00:08;;;;;;;;;;;;;;;22.54;30.54;98188.59;4963134;28;1282;-76
2023/08/11 12:02:38;;;;;;;;;;;;;;;22.53;30.47;98190.63;4963994;28;931;-77
2023/08/11 12:05:04;;;;;;;;;;;;;;;22.51;30.37;98189.47;4946387;28;928;-75
2023/08/11 12:07:30;;;;;;;;;;;;;;;22.50;30.48;98187.91;4962895;28;888;-76
2023/08/11 12:09:56;;;;;;;;;;;;;;;22.46;30.29;98187.19;4962537;28;893;-77
2023/08/11 12:12:25;;;;;;;;;;;;;;;22.41;30.43;98184.91;4962705;28;957;-76
2023/08/11 12:14:51;;;;;;;;;;;;;;;22.32;30.65;98189.16;4946579;28;1975;-76
2023/08/11 12:17:17;;;;;;;;;;;;;;;22.42;30.56;98181.59;4946479;28;1282;-76
2023/08/11 12:19:44;;;;;;;;;;;;;;;22.58;30.43;98187.22;4946268;28;1052;-77
2023/08/11 12:22:09;;;;;;;;;;;;;;;22.84;29.75;98173.94;4962682;28;906;-76
2023/08/11 12:24:35;;;;;;;;;;;;;;;22.75;30.08;98176.66;4962424;28;1120;-76
2023/08/11 12:27:00;;;;;;;;;;;;;;;22.63;30.54;98180.22;4962055;28;891;-77
2023/08/11 12:29:26;;;;;;;;;;;;;;;22.76;30.10;98178.25;4979308;28;975;-76
2023/08/11 12:31:51;;;;;;;;;;;;;;;22.64;30.37;98176.16;4962158;28;1183;-77
2023/08/11 12:34:17;;;;;;;;;;;;;;;22.58;30.12;98189.28;4961790;28;1911;-76
2023/08/11 12:36:42;;;;;;;;;;;;;;;22.38;30.86;98180.09;4961602;28;1227;-77
2023/08/11 12:39:08;;;;;;;;;;;;;;;22.52;30.58;98191.06;4979696;28;977;-76
2023/08/11 12:41:34;;;;;;;;;;;;;;;22.61;30.08;98188.38;4961918;28;1102;-76
2023/08/11 12:43:59;;;;;;;;;;;;;;;22.50;30.33;98193.56;4946059;28;1195;-76
2023/08/11 12:46:25;;;;;;;;;;;;;;;22.80;29.84;98184.63;4953831;28;1055;-77
2023/08/11 12:48:50;;;;;;;;;;;;;;;22.64;30.28;98181.84;4954321;29;1203;-76
2023/08/11 12:51:16;;;;;;;;;;;;;;;22.43;30.68;98188.88;4938477;29;946;-76
2023/08/11 12:53:41;;;;;;;;;;;;;;;22.67;30.27;98180.91;4938307;29;1911;-77